sensor_id;sensor_type;location;lat;lon;timestamp;P1;durP1;ratioP1;P2;durP2;ratioP2
3916;SDS011;1973;50.518;7.318;2023-12-07T00:00:26;14.40;;;9.47;;
3916;SDS011;1973;50.518;7.318;2023-12-07T00:02:52;13.97;;;8.93;;
3916;SDS011;1973;50.518;7.318;2023-12-07T00:05:19;11.80;;;9.13;;
3916;SDS011;1973;50.518;7.318;2023-12-07T00:07:46;10.33;;;8.87;;
3916;SDS011;1973;50.518;7.318;2023-12-07T00:10:12;10.17;;;7.70;;
3916;SDS011;1973;50.518;7.318;2023-12-07T00:12:39;10.27;;;8.30;;
3916;SDS011;1973;50.518;7.318;2023-12-07T00:15:06;11.20;;;9.40;;
3916;SDS011;1973;50.518;7.318;2023-12-07T00:17:33;12.10;;;8.80;;
3916;SDS011;1973;50.518;7.318;2023-12-07T00:19:59;10.87;;;8.63;;
3916;SDS011;1973;50.518;7.318;2023-12-07T00:22:26;9.40;;;8.20;;
3916;SDS011;1973;50.518;7.318;2023-12-07T00:24:54;15.37;;;9.27;;
3916;SDS011;1973;50.518;7.318;2023-12-07T00:27:21;10.07;;;7.87;;
3916;SDS011;1973;50.518;7.318;2023-12-07T00:29:47;8.70;;;7.50;;
3916;SDS011;1973;50.518;7.318;2023-12-07T00:32:14;12.57;;;7.60;;
3916;SDS011;1973;50.518;7.318;2023-12-07T00:34:40;8.90;;;7.07;;
3916;SDS011;1973;50.518;7.318;2023-12-07T00:37:07;12.77;;;8.13;;
3916;SDS011;1973;50.518;7.318;2023-12-07T00:39:34;10.87;;;8.23;;
3916;SDS011;1973;50.518;7.318;2023-12-07T00:42:00;13.30;;;9.70;;
3916;SDS011;1973;50.518;7.318;2023-12-07T00:44:27;14.67;;;8.27;;
3916;SDS011;1973;50.518;7.318;2023-12-07T00:46:53;9.33;;;7.87;;
3916;SDS011;1973;50.518;7.318;2023-12-07T00:49:20;10.30;;;7.87;;
3916;SDS011;1973;50.518;7.318;2023-12-07T00:51:46;11.03;;;8.20;;
3916;SDS011;1973;50.518;7.318;2023-12-07T00:54:14;10.40;;;8.27;;
3916;SDS011;1973;50.518;7.318;2023-12-07T00:56:41;11.03;;;8.30;;
3916;SDS011;1973;50.518;7.318;2023-12-07T00:59:08;9.17;;;8.20;;
3916;SDS011;1973;50.518;7.318;2023-12-07T01:01:34;10.33;;;8.97;;
3916;SDS011;1973;50.518;7.318;2023-12-07T01:04:01;10.87;;;8.27;;
3916;SDS011;1973;50.518;7.318;2023-12-07T01:06:27;12.13;;;9.50;;
3916;SDS011;1973;50.518;7.318;2023-12-07T01:08:54;12.87;;;9.70;;
3916;SDS011;1973;50.518;7.318;2023-12-07T01:11:21;14.67;;;9.07;;
3916;SDS011;1973;50.518;7.318;2023-12-07T01:13:47;12.10;;;8.20;;
3916;SDS011;1973;50.518;7.318;2023-12-07T01:16:14;11.80;;;8.50;;
3916;SDS011;1973;50.518;7.318;2023-12-07T01:18:41;11.63;;;8.13;;
3916;SDS011;1973;50.518;7.318;2023-12-07T01:21:07;9.73;;;8.60;;
3916;SDS011;1973;50.518;7.318;2023-12-07T01:23:34;10.23;;;8.10;;
3916;SDS011;1973;50.518;7.318;2023-12-07T01:26:00;11.20;;;7.97;;
3916;SDS011;1973;50.518;7.318;2023-12-07T01:28:28;11.43;;;7.83;;
3916;SDS011;1973;50.518;7.318;2023-12-07T01:30:55;12.07;;;7.60;;
3916;SDS011;1973;50.518;7.318;2023-12-07T01:33:22;10.90;;;8.00;;
3916;SDS011;1973;50.518;7.318;2023-12-07T01:35:48;9.50;;;7.63;;
3916;SDS011;1973;50.518;7.318;2023-12-07T01:38:15;12.73;;;7.90;;
3916;SDS011;1973;50.518;7.318;2023-12-07T01:40:41;9.80;;;8.17;;
3916;SDS011;1973;50.518;7.318;2023-12-07T01:43:11;11.20;;;8.13;;
3916;SDS011;1973;50.518;7.318;2023-12-07T01:45:38;10.27;;;7.67;;
3916;SDS011;1973;50.518;7.318;2023-12-07T01:48:04;10.47;;;7.50;;
3916;SDS011;1973;50.518;7.318;2023-12-07T01:50:31;8.90;;;7.33;;
3916;SDS011;1973;50.518;7.318;2023-12-07T01:52:59;11.23;;;8.57;;
3916;SDS011;1973;50.518;7.318;2023-12-07T01:55:30;11.77;;;7.63;;
3916;SDS011;1973;50.518;7.318;2023-12-07T01:57:58;12.63;;;8.70;;
3916;SDS011;1973;50.518;7.318;2023-12-07T02:00:26;10.13;;;8.50;;
3916;SDS011;1973;50.518;7.318;2023-12-07T02:02:53;9.63;;;8.30;;
3916;SDS011;1973;50.518;7.318;2023-12-07T02:05:20;13.00;;;8.70;;
3916;SDS011;1973;50.518;7.318;2023-12-07T02:07:47;9.03;;;7.70;;
3916;SDS011;1973;50.518;7.318;2023-12-07T02:10:14;12.87;;;7.57;;
3916;SDS011;1973;50.518;7.318;2023-12-07T02:12:41;10.13;;;7.20;;
3916;SDS011;1973;50.518;7.318;2023-12-07T02:15:08;10.40;;;7.77;;
3916;SDS011;1973;50.518;7.318;2023-12-07T02:23:01;10.77;;;6.80;;
3916;SDS011;1973;50.518;7.318;2023-12-07T02:25:36;9.77;;;6.37;;
3916;SDS011;1973;50.518;7.318;2023-12-07T02:28:08;13.77;;;7.00;;
3916;SDS011;1973;50.518;7.318;2023-12-07T02:30:35;8.97;;;6.37;;
3916;SDS011;1973;50.518;7.318;2023-12-07T02:33:01;8.07;;;6.87;;
3916;SDS011;1973;50.518;7.318;2023-12-07T02:35:28;8.80;;;6.70;;
3916;SDS011;1973;50.518;7.318;2023-12-07T02:37:56;9.90;;;6.67;;
3916;SDS011;1973;50.518;7.318;2023-12-07T02:40:24;8.53;;;6.10;;
3916;SDS011;1973;50.518;7.318;2023-12-07T02:42:52;8.33;;;6.63;;
3916;SDS011;1973;50.518;7.318;2023-12-07T02:45:20;8.73;;;7.10;;
3916;SDS011;1973;50.518;7.318;2023-12-07T02:47:47;8.43;;;6.80;;
3916;SDS011;1973;50.518;7.318;2023-12-07T02:50:14;11.20;;;6.00;;
3916;SDS011;1973;50.518;7.318;2023-12-07T02:52:41;6.80;;;6.03;;
3916;SDS011;1973;50.518;7.318;2023-12-07T02:55:08;6.60;;;5.70;;
3916;SDS011;1973;50.518;7.318;2023-12-07T02:57:35;10.50;;;8.13;;
3916;SDS011;1973;50.518;7.318;2023-12-07T03:00:03;12.27;;;7.70;;
3916;SDS011;1973;50.518;7.318;2023-12-07T03:02:37;7.87;;;6.47;;
3916;SDS011;1973;50.518;7.318;2023-12-07T03:05:05;11.80;;;7.90;;
3916;SDS011;1973;50.518;7.318;2023-12-07T03:07:33;11.43;;;7.77;;
3916;SDS011;1973;50.518;7.318;2023-12-07T03:10:01;10.67;;;8.20;;
3916;SDS011;1973;50.518;7.318;2023-12-07T03:12:29;11.60;;;7.40;;
3916;SDS011;1973;50.518;7.318;2023-12-07T03:14:55;9.13;;;6.90;;
3916;SDS011;1973;50.518;7.318;2023-12-07T03:17:22;11.47;;;8.60;;
3916;SDS011;1973;50.518;7.318;2023-12-07T03:19:48;12.50;;;8.23;;
3916;SDS011;1973;50.518;7.318;2023-12-07T03:22:15;9.60;;;8.40;;
3916;SDS011;1973;50.518;7.318;2023-12-07T03:24:44;10.60;;;7.70;;
3916;SDS011;1973;50.518;7.318;2023-12-07T03:27:17;10.17;;;6.53;;
3916;SDS011;1973;50.518;7.318;2023-12-07T03:29:44;8.50;;;6.80;;
3916;SDS011;1973;50.518;7.318;2023-12-07T03:32:10;9.60;;;6.57;;
3916;SDS011;1973;50.518;7.318;2023-12-07T03:34:37;8.00;;;6.57;;
3916;SDS011;1973;50.518;7.318;2023-12-07T03:37:03;10.40;;;7.33;;
3916;SDS011;1973;50.518;7.318;2023-12-07T03:39:30;8.90;;;6.90;;
3916;SDS011;1973;50.518;7.318;2023-12-07T03:41:59;6.77;;;5.50;;
3916;SDS011;1973;50.518;7.318;2023-12-07T03:44:26;9.60;;;6.13;;
3916;SDS011;1973;50.518;7.318;2023-12-07T03:46:55;7.70;;;6.50;;
3916;SDS011;1973;50.518;7.318;2023-12-07T03:49:21;12.40;;;9.50;;
3916;SDS011;1973;50.518;7.318;2023-12-07T03:51:48;11.90;;;8.10;;
3916;SDS011;1973;50.518;7.318;2023-12-07T03:54:14;12.87;;;7.50;;
3916;SDS011;1973;50.518;7.318;2023-12-07T03:56:41;9.77;;;7.70;;
3916;SDS011;1973;50.518;7.318;2023-12-07T03:59:08;10.40;;;7.60;;
3916;SDS011;1973;50.518;7.318;2023-12-07T04:01:35;7.60;;;6.50;;
3916;SDS011;1973;50.518;7.318;2023-12-07T04:04:01;9.50;;;6.30;;
3916;SDS011;1973;50.518;7.318;2023-12-07T04:06:28;7.70;;;6.27;;
3916;SDS011;1973;50.518;7.318;2023-12-07T04:08:55;9.03;;;6.87;;
3916;SDS011;1973;50.518;7.318;2023-12-07T04:11:22;14.47;;;10.17;;
3916;SDS011;1973;50.518;7.318;2023-12-07T04:13:48;13.20;;;8.43;;
3916;SDS011;1973;50.518;7.318;2023-12-07T04:16:15;11.10;;;7.40;;
3916;SDS011;1973;50.518;7.318;2023-12-07T04:18:42;12.10;;;8.23;;
3916;SDS011;1973;50.518;7.318;2023-12-07T04:21:09;13.97;;;9.43;;
3916;SDS011;1973;50.518;7.318;2023-12-07T04:23:35;15.17;;;11.13;;
3916;SDS011;1973;50.518;7.318;2023-12-07T04:26:02;14.57;;;9.70;;
3916;SDS011;1973;50.518;7.318;2023-12-07T04:28:28;11.97;;;8.00;;
3916;SDS011;1973;50.518;7.318;2023-12-07T04:30:55;9.30;;;7.43;;
3916;SDS011;1973;50.518;7.318;2023-12-07T04:33:22;7.87;;;7.03;;
3916;SDS011;1973;50.518;7.318;2023-12-07T04:35:48;7.97;;;6.73;;
3916;SDS011;1973;50.518;7.318;2023-12-07T04:38:15;10.30;;;8.13;;
3916;SDS011;1973;50.518;7.318;2023-12-07T04:40:41;7.97;;;6.70;;
3916;SDS011;1973;50.518;7.318;2023-12-07T04:43:08;7.80;;;6.23;;
3916;SDS011;1973;50.518;7.318;2023-12-07T04:45:35;7.27;;;6.03;;
3916;SDS011;1973;50.518;7.318;2023-12-07T04:48:02;7.30;;;5.40;;
3916;SDS011;1973;50.518;7.318;2023-12-07T04:50:30;7.17;;;5.83;;
3916;SDS011;1973;50.518;7.318;2023-12-07T04:52:56;9.53;;;6.03;;
3916;SDS011;1973;50.518;7.318;2023-12-07T04:55:23;7.17;;;5.70;;
3916;SDS011;1973;50.518;7.318;2023-12-07T04:57:50;7.60;;;5.87;;
3916;SDS011;1973;50.518;7.318;2023-12-07T05:00:16;7.00;;;5.60;;
3916;SDS011;1973;50.518;7.318;2023-12-07T05:02:43;9.43;;;6.13;;
3916;SDS011;1973;50.518;7.318;2023-12-07T05:05:10;11.93;;;6.83;;
3916;SDS011;1973;50.518;7.318;2023-12-07T05:07:38;8.20;;;5.90;;
3916;SDS011;1973;50.518;7.318;2023-12-07T05:10:04;7.47;;;6.27;;
3916;SDS011;1973;50.518;7.318;2023-12-07T05:12:32;8.23;;;5.97;;
3916;SDS011;1973;50.518;7.318;2023-12-07T05:14:59;9.00;;;6.60;;
3916;SDS011;1973;50.518;7.318;2023-12-07T05:17:25;11.27;;;7.57;;
3916;SDS011;1973;50.518;7.318;2023-12-07T05:19:52;9.10;;;6.73;;
3916;SDS011;1973;50.518;7.318;2023-12-07T05:22:18;9.47;;;6.40;;
3916;SDS011;1973;50.518;7.318;2023-12-07T05:24:45;15.83;;;7.17;;
3916;SDS011;1973;50.518;7.318;2023-12-07T05:27:12;10.10;;;6.03;;
3916;SDS011;1973;50.518;7.318;2023-12-07T05:29:38;9.77;;;7.27;;
3916;SDS011;1973;50.518;7.318;2023-12-07T05:32:05;9.90;;;7.10;;
3916;SDS011;1973;50.518;7.318;2023-12-07T05:34:32;10.10;;;7.13;;
3916;SDS011;1973;50.518;7.318;2023-12-07T05:37:00;8.80;;;6.67;;
3916;SDS011;1973;50.518;7.318;2023-12-07T05:39:26;9.57;;;6.90;;
3916;SDS011;1973;50.518;7.318;2023-12-07T05:41:53;9.00;;;7.10;;
3916;SDS011;1973;50.518;7.318;2023-12-07T05:44:19;12.13;;;8.20;;
3916;SDS011;1973;50.518;7.318;2023-12-07T05:46:48;13.03;;;9.50;;
3916;SDS011;1973;50.518;7.318;2023-12-07T05:49:15;12.60;;;9.13;;
3916;SDS011;1973;50.518;7.318;2023-12-07T05:51:42;17.27;;;10.83;;
3916;SDS011;1973;50.518;7.318;2023-12-07T05:54:09;14.30;;;10.10;;
3916;SDS011;1973;50.518;7.318;2023-12-07T05:56:35;14.40;;;10.40;;
3916;SDS011;1973;50.518;7.318;2023-12-07T05:59:02;12.27;;;9.40;;
3916;SDS011;1973;50.518;7.318;2023-12-07T06:01:28;14.80;;;8.47;;
3916;SDS011;1973;50.518;7.318;2023-12-07T06:03:55;11.97;;;10.27;;
3916;SDS011;1973;50.518;7.318;2023-12-07T06:06:21;12.63;;;9.37;;
3916;SDS011;1973;50.518;7.318;2023-12-07T06:08:48;11.77;;;9.10;;
3916;SDS011;1973;50.518;7.318;2023-12-07T06:11:14;13.67;;;9.97;;
3916;SDS011;1973;50.518;7.318;2023-12-07T06:13:41;16.43;;;10.73;;
3916;SDS011;1973;50.518;7.318;2023-12-07T06:16:11;15.80;;;11.43;;
3916;SDS011;1973;50.518;7.318;2023-12-07T06:18:38;17.53;;;12.33;;
3916;SDS011;1973;50.518;7.318;2023-12-07T06:21:04;14.80;;;11.40;;
3916;SDS011;1973;50.518;7.318;2023-12-07T06:23:31;15.83;;;11.60;;
3916;SDS011;1973;50.518;7.318;2023-12-07T06:25:57;17.23;;;12.07;;
3916;SDS011;1973;50.518;7.318;2023-12-07T06:28:24;15.37;;;12.00;;
3916;SDS011;1973;50.518;7.318;2023-12-07T06:30:50;13.57;;;11.43;;
3916;SDS011;1973;50.518;7.318;2023-12-07T06:33:17;18.40;;;11.70;;
3916;SDS011;1973;50.518;7.318;2023-12-07T06:35:44;16.80;;;11.87;;
3916;SDS011;1973;50.518;7.318;2023-12-07T06:38:12;17.10;;;12.73;;
3916;SDS011;1973;50.518;7.318;2023-12-07T06:40:39;18.30;;;12.23;;
3916;SDS011;1973;50.518;7.318;2023-12-07T06:43:05;17.70;;;12.40;;
3916;SDS011;1973;50.518;7.318;2023-12-07T06:45:32;21.20;;;13.30;;
3916;SDS011;1973;50.518;7.318;2023-12-07T06:47:59;17.17;;;12.77;;
3916;SDS011;1973;50.518;7.318;2023-12-07T06:50:25;17.00;;;12.97;;
3916;SDS011;1973;50.518;7.318;2023-12-07T06:52:52;19.00;;;12.13;;
3916;SDS011;1973;50.518;7.318;2023-12-07T06:55:18;18.00;;;12.27;;
3916;SDS011;1973;50.518;7.318;2023-12-07T06:57:46;23.60;;;11.37;;
3916;SDS011;1973;50.518;7.318;2023-12-07T07:00:12;16.83;;;12.73;;
3916;SDS011;1973;50.518;7.318;2023-12-07T07:02:39;21.10;;;12.20;;
3916;SDS011;1973;50.518;7.318;2023-12-07T07:05:07;19.43;;;13.40;;
3916;SDS011;1973;50.518;7.318;2023-12-07T07:07:34;18.00;;;13.00;;
3916;SDS011;1973;50.518;7.318;2023-12-07T07:10:00;18.20;;;11.83;;
3916;SDS011;1973;50.518;7.318;2023-12-07T07:12:27;18.43;;;13.60;;
3916;SDS011;1973;50.518;7.318;2023-12-07T07:14:55;19.53;;;14.60;;
3916;SDS011;1973;50.518;7.318;2023-12-07T07:17:22;16.50;;;13.63;;
3916;SDS011;1973;50.518;7.318;2023-12-07T07:19:49;18.80;;;12.90;;
3916;SDS011;1973;50.518;7.318;2023-12-07T07:22:15;18.53;;;13.07;;
3916;SDS011;1973;50.518;7.318;2023-12-07T07:24:42;19.53;;;12.87;;
3916;SDS011;1973;50.518;7.318;2023-12-07T07:27:08;19.83;;;12.13;;
3916;SDS011;1973;50.518;7.318;2023-12-07T07:29:35;18.67;;;12.93;;
3916;SDS011;1973;50.518;7.318;2023-12-07T07:32:02;20.17;;;13.90;;
3916;SDS011;1973;50.518;7.318;2023-12-07T07:34:28;24.17;;;16.53;;
3916;SDS011;1973;50.518;7.318;2023-12-07T07:36:55;22.80;;;16.43;;
3916;SDS011;1973;50.518;7.318;2023-12-07T07:39:21;19.57;;;13.40;;
3916;SDS011;1973;50.518;7.318;2023-12-07T07:41:48;18.70;;;14.20;;
3916;SDS011;1973;50.518;7.318;2023-12-07T07:44:15;20.37;;;15.20;;
3916;SDS011;1973;50.518;7.318;2023-12-07T07:46:43;19.60;;;15.07;;
3916;SDS011;1973;50.518;7.318;2023-12-07T07:49:09;18.90;;;13.73;;
3916;SDS011;1973;50.518;7.318;2023-12-07T07:51:36;21.57;;;16.20;;
3916;SDS011;1973;50.518;7.318;2023-12-07T07:54:02;22.47;;;15.97;;
3916;SDS011;1973;50.518;7.318;2023-12-07T07:56:29;22.73;;;15.90;;
3916;SDS011;1973;50.518;7.318;2023-12-07T07:58:56;22.40;;;16.83;;
3916;SDS011;1973;50.518;7.318;2023-12-07T08:01:26;25.90;;;16.97;;
3916;SDS011;1973;50.518;7.318;2023-12-07T08:03:52;32.13;;;17.60;;
3916;SDS011;1973;50.518;7.318;2023-12-07T08:06:19;26.60;;;16.20;;
3916;SDS011;1973;50.518;7.318;2023-12-07T08:08:46;23.27;;;15.40;;
3916;SDS011;1973;50.518;7.318;2023-12-07T08:11:14;23.70;;;16.50;;
3916;SDS011;1973;50.518;7.318;2023-12-07T08:13:41;26.80;;;15.23;;
3916;SDS011;1973;50.518;7.318;2023-12-07T08:16:07;26.30;;;16.07;;
3916;SDS011;1973;50.518;7.318;2023-12-07T08:18:35;26.20;;;16.57;;
3916;SDS011;1973;50.518;7.318;2023-12-07T08:21:02;25.30;;;17.00;;
3916;SDS011;1973;50.518;7.318;2023-12-07T08:23:29;24.87;;;15.33;;
3916;SDS011;1973;50.518;7.318;2023-12-07T08:25:56;20.13;;;13.93;;
3916;SDS011;1973;50.518;7.318;2023-12-07T08:28:23;24.93;;;15.30;;
3916;SDS011;1973;50.518;7.318;2023-12-07T08:30:50;27.70;;;16.77;;
3916;SDS011;1973;50.518;7.318;2023-12-07T08:33:16;21.67;;;15.50;;
3916;SDS011;1973;50.518;7.318;2023-12-07T08:35:43;26.70;;;15.57;;
3916;SDS011;1973;50.518;7.318;2023-12-07T08:38:10;21.20;;;15.43;;
3916;SDS011;1973;50.518;7.318;2023-12-07T08:40:36;22.23;;;15.60;;
3916;SDS011;1973;50.518;7.318;2023-12-07T08:43:03;18.23;;;13.53;;
3916;SDS011;1973;50.518;7.318;2023-12-07T08:45:30;27.33;;;13.90;;
3916;SDS011;1973;50.518;7.318;2023-12-07T08:47:57;27.47;;;15.73;;
3916;SDS011;1973;50.518;7.318;2023-12-07T08:50:24;23.93;;;14.40;;
3916;SDS011;1973;50.518;7.318;2023-12-07T08:52:50;21.33;;;15.27;;
3916;SDS011;1973;50.518;7.318;2023-12-07T08:55:25;24.10;;;14.00;;
3916;SDS011;1973;50.518;7.318;2023-12-07T08:57:52;24.60;;;14.50;;
3916;SDS011;1973;50.518;7.318;2023-12-07T09:00:19;20.23;;;14.20;;
3916;SDS011;1973;50.518;7.318;2023-12-07T09:02:50;20.73;;;14.17;;
3916;SDS011;1973;50.518;7.318;2023-12-07T09:05:18;19.60;;;14.20;;
3916;SDS011;1973;50.518;7.318;2023-12-07T09:07:44;20.00;;;13.73;;
3916;SDS011;1973;50.518;7.318;2023-12-07T09:10:11;21.53;;;14.30;;
3916;SDS011;1973;50.518;7.318;2023-12-07T09:12:38;21.63;;;15.17;;
3916;SDS011;1973;50.518;7.318;2023-12-07T09:15:06;18.17;;;13.70;;
3916;SDS011;1973;50.518;7.318;2023-12-07T09:17:40;17.23;;;12.60;;
3916;SDS011;1973;50.518;7.318;2023-12-07T09:20:07;19.33;;;13.47;;
3916;SDS011;1973;50.518;7.318;2023-12-07T09:22:43;20.77;;;14.70;;
3916;SDS011;1973;50.518;7.318;2023-12-07T09:25:11;20.67;;;13.63;;
3916;SDS011;1973;50.518;7.318;2023-12-07T09:27:38;17.60;;;13.40;;
3916;SDS011;1973;50.518;7.318;2023-12-07T09:30:06;20.80;;;13.90;;
3916;SDS011;1973;50.518;7.318;2023-12-07T09:32:40;20.10;;;14.27;;
3916;SDS011;1973;50.518;7.318;2023-12-07T09:35:10;18.73;;;14.60;;
3916;SDS011;1973;50.518;7.318;2023-12-07T09:37:42;17.73;;;12.93;;
3916;SDS011;1973;50.518;7.318;2023-12-07T09:40:12;19.40;;;14.43;;
3916;SDS011;1973;50.518;7.318;2023-12-07T09:42:41;24.50;;;14.00;;
3916;SDS011;1973;50.518;7.318;2023-12-07T09:45:09;17.80;;;12.23;;
3916;SDS011;1973;50.518;7.318;2023-12-07T09:47:36;17.87;;;12.07;;
3916;SDS011;1973;50.518;7.318;2023-12-07T09:50:06;16.30;;;12.57;;
3916;SDS011;1973;50.518;7.318;2023-12-07T09:52:36;18.03;;;12.33;;
3916;SDS011;1973;50.518;7.318;2023-12-07T09:55:03;16.53;;;12.43;;
3916;SDS011;1973;50.518;7.318;2023-12-07T09:57:31;18.87;;;12.57;;
3916;SDS011;1973;50.518;7.318;2023-12-07T09:59:59;17.50;;;12.90;;
3916;SDS011;1973;50.518;7.318;2023-12-07T10:02:26;18.13;;;13.00;;
3916;SDS011;1973;50.518;7.318;2023-12-07T10:07:52;13.03;;;10.97;;
3916;SDS011;1973;50.518;7.318;2023-12-07T10:10:18;19.03;;;12.27;;
3916;SDS011;1973;50.518;7.318;2023-12-07T10:12:46;16.13;;;12.50;;
3916;SDS011;1973;50.518;7.318;2023-12-07T10:15:24;16.50;;;11.30;;
3916;SDS011;1973;50.518;7.318;2023-12-07T10:17:55;16.20;;;12.20;;
3916;SDS011;1973;50.518;7.318;2023-12-07T10:20:27;17.10;;;13.33;;
3916;SDS011;1973;50.518;7.318;2023-12-07T10:23:03;15.00;;;12.17;;
3916;SDS011;1973;50.518;7.318;2023-12-07T10:25:31;16.27;;;10.67;;
3916;SDS011;1973;50.518;7.318;2023-12-07T10:27:59;17.43;;;12.37;;
3916;SDS011;1973;50.518;7.318;2023-12-07T10:30:27;17.77;;;11.40;;
3916;SDS011;1973;50.518;7.318;2023-12-07T10:32:53;14.67;;;12.00;;
3916;SDS011;1973;50.518;7.318;2023-12-07T10:35:20;14.50;;;10.93;;
3916;SDS011;1973;50.518;7.318;2023-12-07T10:37:47;16.27;;;11.43;;
3916;SDS011;1973;50.518;7.318;2023-12-07T10:40:14;15.47;;;11.83;;
3916;SDS011;1973;50.518;7.318;2023-12-07T10:42:42;17.20;;;12.53;;
3916;SDS011;1973;50.518;7.318;2023-12-07T10:45:14;17.00;;;11.70;;
3916;SDS011;1973;50.518;7.318;2023-12-07T10:47:43;14.10;;;10.73;;
3916;SDS011;1973;50.518;7.318;2023-12-07T10:50:10;16.13;;;10.43;;
3916;SDS011;1973;50.518;7.318;2023-12-07T10:52:43;14.20;;;10.60;;
3916;SDS011;1973;50.518;7.318;2023-12-07T10:55:16;15.50;;;9.70;;
3916;SDS011;1973;50.518;7.318;2023-12-07T10:57:46;16.13;;;11.07;;
3916;SDS011;1973;50.518;7.318;2023-12-07T11:00:13;14.33;;;10.53;;
3916;SDS011;1973;50.518;7.318;2023-12-07T11:02:40;14.13;;;11.03;;
3916;SDS011;1973;50.518;7.318;2023-12-07T11:05:08;15.17;;;11.03;;
3916;SDS011;1973;50.518;7.318;2023-12-07T11:07:45;15.27;;;12.03;;
3916;SDS011;1973;50.518;7.318;2023-12-07T11:10:39;12.10;;;10.30;;
3916;SDS011;1973;50.518;7.318;2023-12-07T11:13:14;13.53;;;11.30;;
3916;SDS011;1973;50.518;7.318;2023-12-07T11:15:44;15.43;;;10.30;;
3916;SDS011;1973;50.518;7.318;2023-12-07T11:18:11;14.10;;;10.77;;
3916;SDS011;1973;50.518;7.318;2023-12-07T11:20:45;13.47;;;10.50;;
3916;SDS011;1973;50.518;7.318;2023-12-07T11:23:17;14.20;;;8.60;;
3916;SDS011;1973;50.518;7.318;2023-12-07T11:25:45;11.30;;;9.87;;
3916;SDS011;1973;50.518;7.318;2023-12-07T11:28:12;13.40;;;9.50;;
3916;SDS011;1973;50.518;7.318;2023-12-07T11:30:44;12.23;;;9.50;;
3916;SDS011;1973;50.518;7.318;2023-12-07T11:33:11;10.50;;;8.40;;
3916;SDS011;1973;50.518;7.318;2023-12-07T11:38:26;14.13;;;9.37;;
3916;SDS011;1973;50.518;7.318;2023-12-07T11:40:53;13.73;;;8.93;;
3916;SDS011;1973;50.518;7.318;2023-12-07T11:46:04;10.20;;;8.47;;
3916;SDS011;1973;50.518;7.318;2023-12-07T11:48:31;10.00;;;9.00;;
3916;SDS011;1973;50.518;7.318;2023-12-07T11:51:02;9.87;;;8.30;;
3916;SDS011;1973;50.518;7.318;2023-12-07T11:53:37;12.73;;;9.50;;
3916;SDS011;1973;50.518;7.318;2023-12-07T11:56:05;11.20;;;9.23;;
3916;SDS011;1973;50.518;7.318;2023-12-07T11:58:34;11.97;;;9.20;;
3916;SDS011;1973;50.518;7.318;2023-12-07T12:01:06;11.70;;;9.13;;
3916;SDS011;1973;50.518;7.318;2023-12-07T12:03:34;10.47;;;9.27;;
3916;SDS011;1973;50.518;7.318;2023-12-07T12:06:03;12.57;;;10.00;;
3916;SDS011;1973;50.518;7.318;2023-12-07T12:08:32;12.00;;;10.20;;
3916;SDS011;1973;50.518;7.318;2023-12-07T12:10:58;13.63;;;9.73;;
3916;SDS011;1973;50.518;7.318;2023-12-07T12:13:28;12.40;;;9.60;;
3916;SDS011;1973;50.518;7.318;2023-12-07T12:15:56;13.33;;;10.07;;
3916;SDS011;1973;50.518;7.318;2023-12-07T12:18:29;14.43;;;10.77;;
3916;SDS011;1973;50.518;7.318;2023-12-07T12:20:55;16.57;;;12.13;;
3916;SDS011;1973;50.518;7.318;2023-12-07T12:23:23;13.60;;;10.77;;
3916;SDS011;1973;50.518;7.318;2023-12-07T12:25:50;14.13;;;11.60;;
3916;SDS011;1973;50.518;7.318;2023-12-07T12:28:17;14.00;;;11.10;;
3916;SDS011;1973;50.518;7.318;2023-12-07T12:30:48;14.40;;;10.53;;
3916;SDS011;1973;50.518;7.318;2023-12-07T12:33:15;13.37;;;10.07;;
3916;SDS011;1973;50.518;7.318;2023-12-07T12:35:41;13.30;;;9.87;;
3916;SDS011;1973;50.518;7.318;2023-12-07T12:38:09;16.20;;;10.60;;
3916;SDS011;1973;50.518;7.318;2023-12-07T12:40:52;17.67;;;12.67;;
3916;SDS011;1973;50.518;7.318;2023-12-07T12:43:20;14.80;;;12.43;;
3916;SDS011;1973;50.518;7.318;2023-12-07T12:45:48;13.47;;;11.20;;
3916;SDS011;1973;50.518;7.318;2023-12-07T12:48:31;13.17;;;10.03;;
3916;SDS011;1973;50.518;7.318;2023-12-07T12:50:58;14.70;;;11.47;;
3916;SDS011;1973;50.518;7.318;2023-12-07T12:53:33;13.67;;;11.07;;
3916;SDS011;1973;50.518;7.318;2023-12-07T12:56:00;14.30;;;11.37;;
3916;SDS011;1973;50.518;7.318;2023-12-07T12:58:27;14.70;;;11.60;;
3916;SDS011;1973;50.518;7.318;2023-12-07T13:00:53;16.70;;;11.70;;
3916;SDS011;1973;50.518;7.318;2023-12-07T13:03:21;13.57;;;11.23;;
3916;SDS011;1973;50.518;7.318;2023-12-07T13:05:47;16.17;;;10.83;;
3916;SDS011;1973;50.518;7.318;2023-12-07T13:08:15;14.37;;;11.33;;
3916;SDS011;1973;50.518;7.318;2023-12-07T13:10:41;14.43;;;11.23;;
3916;SDS011;1973;50.518;7.318;2023-12-07T13:13:08;15.00;;;11.00;;
3916;SDS011;1973;50.518;7.318;2023-12-07T13:15:35;12.77;;;10.27;;
3916;SDS011;1973;50.518;7.318;2023-12-07T13:18:02;13.17;;;10.33;;
3916;SDS011;1973;50.518;7.318;2023-12-07T13:20:33;16.33;;;11.60;;
3916;SDS011;1973;50.518;7.318;2023-12-07T13:23:19;12.20;;;10.10;;
3916;SDS011;1973;50.518;7.318;2023-12-07T13:25:47;15.17;;;10.80;;
3916;SDS011;1973;50.518;7.318;2023-12-07T13:28:13;13.30;;;9.43;;
3916;SDS011;1973;50.518;7.318;2023-12-07T13:30:40;11.97;;;10.07;;
3916;SDS011;1973;50.518;7.318;2023-12-07T13:33:07;12.73;;;11.37;;
3916;SDS011;1973;50.518;7.318;2023-12-07T13:35:50;13.73;;;10.67;;
3916;SDS011;1973;50.518;7.318;2023-12-07T13:38:18;14.00;;;10.43;;
3916;SDS011;1973;50.518;7.318;2023-12-07T13:40:47;13.90;;;11.23;;
3916;SDS011;1973;50.518;7.318;2023-12-07T13:43:13;14.13;;;11.70;;
3916;SDS011;1973;50.518;7.318;2023-12-07T13:45:44;15.57;;;12.50;;
3916;SDS011;1973;50.518;7.318;2023-12-07T13:48:11;16.37;;;12.10;;
3916;SDS011;1973;50.518;7.318;2023-12-07T13:50:39;16.90;;;11.30;;
3916;SDS011;1973;50.518;7.318;2023-12-07T13:53:06;12.90;;;11.43;;
3916;SDS011;1973;50.518;7.318;2023-12-07T13:55:37;15.80;;;12.30;;
3916;SDS011;1973;50.518;7.318;2023-12-07T13:58:03;14.33;;;12.07;;
3916;SDS011;1973;50.518;7.318;2023-12-07T14:00:30;13.83;;;11.67;;
3916;SDS011;1973;50.518;7.318;2023-12-07T14:02:58;15.60;;;10.63;;
3916;SDS011;1973;50.518;7.318;2023-12-07T14:05:24;11.83;;;10.00;;
3916;SDS011;1973;50.518;7.318;2023-12-07T14:07:51;11.57;;;9.80;;
3916;SDS011;1973;50.518;7.318;2023-12-07T14:10:18;11.87;;;9.83;;
3916;SDS011;1973;50.518;7.318;2023-12-07T14:12:44;12.10;;;9.30;;
3916;SDS011;1973;50.518;7.318;2023-12-07T14:15:11;13.87;;;10.23;;
3916;SDS011;1973;50.518;7.318;2023-12-07T14:17:37;12.80;;;9.90;;
3916;SDS011;1973;50.518;7.318;2023-12-07T14:20:18;14.73;;;10.00;;
3916;SDS011;1973;50.518;7.318;2023-12-07T14:23:07;11.93;;;10.10;;
3916;SDS011;1973;50.518;7.318;2023-12-07T14:25:34;16.00;;;10.70;;
3916;SDS011;1973;50.518;7.318;2023-12-07T14:28:00;13.43;;;9.93;;
3916;SDS011;1973;50.518;7.318;2023-12-07T14:30:27;14.03;;;9.90;;
3916;SDS011;1973;50.518;7.318;2023-12-07T14:32:54;17.90;;;10.20;;
3916;SDS011;1973;50.518;7.318;2023-12-07T14:35:21;12.47;;;9.90;;
3916;SDS011;1973;50.518;7.318;2023-12-07T14:37:48;13.80;;;9.37;;
3916;SDS011;1973;50.518;7.318;2023-12-07T14:40:16;17.07;;;11.20;;
3916;SDS011;1973;50.518;7.318;2023-12-07T14:42:43;16.60;;;10.07;;
3916;SDS011;1973;50.518;7.318;2023-12-07T14:45:12;16.00;;;11.43;;
3916;SDS011;1973;50.518;7.318;2023-12-07T14:47:39;14.10;;;11.07;;
3916;SDS011;1973;50.518;7.318;2023-12-07T14:50:06;16.70;;;10.97;;
3916;SDS011;1973;50.518;7.318;2023-12-07T14:52:33;15.23;;;11.90;;
3916;SDS011;1973;50.518;7.318;2023-12-07T14:55:00;14.30;;;10.33;;
3916;SDS011;1973;50.518;7.318;2023-12-07T14:57:30;15.80;;;10.03;;
3916;SDS011;1973;50.518;7.318;2023-12-07T14:59:57;15.90;;;10.73;;
3916;SDS011;1973;50.518;7.318;2023-12-07T15:02:24;12.97;;;10.37;;
3916;SDS011;1973;50.518;7.318;2023-12-07T15:04:51;14.83;;;11.00;;
3916;SDS011;1973;50.518;7.318;2023-12-07T15:07:18;14.07;;;10.73;;
3916;SDS011;1973;50.518;7.318;2023-12-07T15:09:44;15.03;;;11.10;;
3916;SDS011;1973;50.518;7.318;2023-12-07T15:12:14;14.63;;;11.83;;